Time;durP1;ratioP1;P1;durP2;ratioP2;P2;SDS_P1;SDS_P2;PMS_P1;PMS_P2;Temp;Humidity;BMP_temperature;BMP_pressure;BME280_temperature;BME280_humidity;BME280_pressure;Samples;Min_cycle;Max_cycle;Signal;HPM_P1;HPM_P2
2024/03/13 00:01:09;;;;;;;6.70;4.57;;;23.50;50.30;;;;;;6161945;28;81581;-59
2024/03/13 00:04:10;;;;;;;7.05;4.85;;;23.50;50.50;;;;;;6158460;28;81070;-59
2024/03/13 00:07:10;;;;;;;6.75;4.65;;;23.50;50.40;;;;;;6159538;28;83024;-59
2024/03/13 00:10:11;;;;;;;5.55;4.07;;;23.50;50.10;;;;;;6166261;28;81174;-59
2024/03/13 00:13:11;;;;;;;6.15;4.53;;;23.50;50.00;;;;;;6151901;28;80501;-59
2024/03/13 00:16:12;;;;;;;5.85;4.25;;;23.50;50.10;;;;;;6172289;28;81242;-58
2024/03/13 00:19:12;;;;;;;6.75;4.55;;;23.50;50.00;;;;;;6157002;28;80717;-58
2024/03/13 00:22:18;;;;;;;5.68;4.32;;;23.50;50.00;;;;;;6160620;28;80710;-57
2024/03/13 00:25:19;;;;;;;;;;;23.50;50.00;;;;;;6170226;28;81748;-59
2024/03/13 00:28:21;;;;;;;7.15;4.53;;;23.50;50.00;;;;;;6182245;28;79106;-55
2024/03/13 00:31:22;;;;;;;6.57;4.35;;;23.50;50.00;;;;;;6165690;28;81043;-51
2024/03/13 00:34:22;;;;;;;6.57;4.43;;;23.50;49.90;;;;;;6175636;28;82705;-57
2024/03/13 00:37:24;;;;;;;7.05;3.97;;;23.50;50.00;;;;;;6167607;28;80145;-57
2024/03/13 00:40:24;;;;;;;5.72;4.18;;;23.50;50.00;;;;;;6175520;28;81410;-57
2024/03/13 00:43:25;;;;;;;6.03;4.28;;;23.40;50.00;;;;;;6175080;28;82512;-58
2024/03/13 00:46:25;;;;;;;5.22;4.10;;;23.40;50.10;;;;;;6179832;28;80548;-56
2024/03/13 00:49:27;;;;;;;6.82;4.15;;;23.40;50.20;;;;;;6179867;28;86446;-57
2024/03/13 00:52:28;;;;;;;9.90;3.80;;;23.30;50.10;;;;;;6182284;28;80285;-59
2024/03/13 00:55:29;;;;;;;8.15;4.72;;;23.30;50.10;;;;;;6179989;28;80428;-59
2024/03/13 00:58:29;;;;;;;6.35;3.95;;;23.30;50.20;;;;;;6179420;28;80480;-58
2024/03/13 01:01:30;;;;;;;5.20;3.88;;;23.30;50.10;;;;;;6179380;28;81128;-58
2024/03/13 01:04:30;;;;;;;4.95;3.60;;;23.30;50.20;;;;;;6179254;28;80434;-57
2024/03/13 01:07:31;;;;;;;5.35;3.42;;;23.30;50.20;;;;;;6180048;28;81487;-56
2024/03/13 01:10:32;;;;;;;5.38;4.00;;;23.30;50.10;;;;;;6178135;28;80254;-57
2024/03/13 01:13:32;;;;;;;5.43;3.85;;;23.30;50.20;;;;;;6180345;28;80375;-59
2024/03/13 01:16:34;;;;;;;4.82;3.67;;;23.30;50.20;;;;;;6188695;28;80450;-59
2024/03/13 01:19:34;;;;;;;5.18;3.35;;;23.30;50.10;;;;;;6189072;28;81283;-58
2024/03/13 01:22:35;;;;;;;5.75;3.72;;;23.30;50.20;;;;;;6179406;28;83768;-59
2024/03/13 01:25:36;;;;;;;5.35;3.30;;;23.30;50.10;;;;;;6180378;28;80904;-59
2024/03/13 01:28:37;;;;;;;5.55;3.28;;;23.30;50.10;;;;;;6180173;28;80372;-59
2024/03/13 01:31:37;;;;;;;4.47;3.30;;;23.30;50.10;;;;;;6179450;28;81832;-60
2024/03/13 01:34:38;;;;;;;5.97;3.17;;;23.30;50.20;;;;;;6179135;28;80212;-60
2024/03/13 01:57:45;;;;;;;14.75;2.65;;;23.30;49.90;;;;;;6165655;28;80600;-59
2024/03/13 02:04:05;;;;;;;3.72;2.78;;;23.30;49.90;;;;;;6176389;28;81597;-59
2024/03/13 02:07:05;;;;;;;3.58;2.60;;;23.30;49.80;;;;;;6177544;28;81656;-62
2024/03/13 02:10:06;;;;;;;4.15;2.60;;;23.30;49.70;;;;;;6177421;28;80739;-61
2024/03/13 02:13:06;;;;;;;4.35;2.60;;;23.30;49.70;;;;;;6179755;28;80510;-62
2024/03/13 02:16:07;;;;;;;4.07;2.67;;;23.30;49.70;;;;;;6191022;28;81269;-63
2024/03/13 02:19:08;;;;;;;5.40;2.13;;;23.30;49.70;;;;;;6190210;28;81069;-61
2024/03/13 02:22:08;;;;;;;3.13;2.53;;;23.30;49.70;;;;;;6179568;28;80753;-62
2024/03/13 02:25:09;;;;;;;3.78;2.22;;;23.30;49.60;;;;;;6178800;28;80597;-61
2024/03/13 02:28:10;;;;;;;3.20;2.63;;;23.30;49.60;;;;;;6193769;28;82185;-61
2024/03/13 02:31:10;;;;;;;4.20;2.55;;;23.30;49.40;;;;;;6171291;28;80916;-62
2024/03/13 02:34:11;;;;;;;3.35;2.50;;;23.30;49.50;;;;;;6178501;28;84972;-62
2024/03/13 02:37:11;;;;;;;2.83;2.10;;;23.30;49.40;;;;;;6198988;28;81715;-61
2024/03/13 02:40:16;;;;;;;4.20;2.25;;;23.30;49.50;;;;;;6178587;28;80409;-62
2024/03/13 02:43:17;;;;;;;3.47;2.33;;;23.30;49.50;;;;;;6202045;28;80609;-61
2024/03/13 02:46:18;;;;;;;3.58;2.50;;;23.30;49.40;;;;;;6192924;28;80446;-62
2024/03/13 02:49:18;;;;;;;2.90;2.25;;;23.30;49.40;;;;;;6177346;28;83628;-62
2024/03/13 02:52:19;;;;;;;3.42;2.47;;;23.30;49.40;;;;;;6178789;28;80598;-62
2024/03/13 02:55:20;;;;;;;4.85;2.15;;;23.30;49.50;;;;;;6178729;28;80690;-60
2024/03/13 02:58:21;;;;;;;4.10;2.10;;;23.30;49.50;;;;;;6177925;28;81093;-61
2024/03/13 03:01:22;;;;;;;2.17;1.88;;;23.30;49.50;;;;;;6179347;28;81555;-60
2024/03/13 03:04:22;;;;;;;3.97;2.17;;;23.30;49.50;;;;;;6177132;28;80695;-62
2024/03/13 03:07:23;;;;;;;2.58;1.95;;;23.30;49.50;;;;;;6185843;28;80942;-62
2024/03/13 03:10:24;;;;;;;3.88;1.90;;;23.30;49.50;;;;;;6177758;28;80841;-62
2024/03/13 03:13:24;;;;;;;2.28;2.05;;;23.30;49.60;;;;;;6178140;28;80136;-62
2024/03/13 03:16:25;;;;;;;2.55;2.08;;;23.30;49.60;;;;;;6177479;28;80769;-63
2024/03/13 03:19:25;;;;;;;3.33;2.03;;;23.20;49.60;;;;;;6178284;28;81300;-62
2024/03/13 03:22:26;;;;;;;1.95;1.63;;;23.20;49.60;;;;;;6177430;28;80546;-61
2024/03/13 03:25:28;;;;;;;3.65;2.05;;;23.20;49.60;;;;;;6177784;28;81596;-62
2024/03/13 03:28:29;;;;;;;3.33;1.90;;;23.20;49.70;;;;;;6177322;28;80373;-61
2024/03/13 03:31:30;;;;;;;2.00;1.80;;;23.20;49.70;;;;;;6175451;28;80349;-64
2024/03/13 03:34:30;;;;;;;2.35;1.50;;;23.20;49.70;;;;;;6176915;28;80360;-63
2024/03/13 03:37:31;;;;;;;2.80;1.80;;;23.20;49.50;;;;;;6180170;28;87430;-63
2024/03/13 03:40:31;;;;;;;1.95;1.63;;;23.20;49.50;;;;;;6191952;28;80480;-63
2024/03/13 03:43:32;;;;;;;2.50;1.73;;;23.20;49.60;;;;;;6178784;28;81656;-62
2024/03/13 03:46:34;;;;;;;2.22;2.03;;;23.20;49.50;;;;;;6177970;28;80787;-63
2024/03/13 03:49:34;;;;;;;2.38;1.92;;;23.20;49.60;;;;;;6176980;28;80576;-64
2024/03/13 03:52:35;;;;;;;3.75;1.95;;;23.20;49.60;;;;;;6176966;28;80482;-62
2024/03/13 03:55:36;;;;;;;2.35;1.88;;;23.20;49.60;;;;;;6176572;28;80517;-60
2024/03/13 03:58:38;;;;;;;3.22;2.13;;;23.20;49.50;;;;;;6178329;28;80597;-63
2024/03/13 04:01:38;;;;;;;2.45;1.77;;;23.20;49.50;;;;;;6176657;28;81891;-61
2024/03/13 04:04:39;;;;;;;2.60;2.05;;;23.20;49.50;;;;;;6176494;28;80350;-61
2024/03/13 04:07:39;;;;;;;1.73;1.60;;;23.20;49.50;;;;;;6185103;28;81751;-62
2024/03/13 04:10:40;;;;;;;2.38;1.67;;;23.20;49.50;;;;;;6172405;28;84144;-63
2024/03/13 04:13:41;;;;;;;2.25;1.77;;;23.20;49.60;;;;;;6177412;28;81034;-62
2024/03/13 04:16:43;;;;;;;1.92;1.50;;;23.20;49.70;;;;;;6185962;28;84893;-59
2024/03/13 04:19:43;;;;;;;2.08;1.70;;;23.30;49.80;;;;;;6175185;28;80581;-58
2024/03/13 04:22:45;;;;;;;3.22;1.60;;;23.30;49.90;;;;;;6176212;28;81521;-58
2024/03/13 04:25:46;;;;;;;2.17;1.67;;;23.30;49.80;;;;;;6174577;28;81241;-53
2024/03/13 04:28:46;;;;;;;2.17;1.77;;;23.30;49.80;;;;;;6175965;28;81852;-56
2024/03/13 04:31:47;;;;;;;2.65;1.80;;;23.40;49.80;;;;;;6175871;28;80740;-59
2024/03/13 04:34:48;;;;;;;1.98;1.60;;;23.40;49.60;;;;;;6175541;28;81055;-56
2024/03/13 04:37:49;;;;;;;2.22;1.98;;;23.40;49.50;;;;;;6175665;28;80681;-59
2024/03/13 04:40:50;;;;;;;1.85;1.60;;;23.50;49.50;;;;;;6175620;28;81874;-58
2024/03/13 04:43:51;;;;;;;2.60;1.95;;;23.50;49.50;;;;;;6175621;28;80047;-58
2024/03/13 04:46:51;;;;;;;3.88;2.00;;;23.50;49.50;;;;;;6174664;28;81143;-60
2024/03/13 04:49:52;;;;;;;3.03;2.10;;;23.60;49.50;;;;;;6175389;28;80439;-59
2024/03/13 04:52:53;;;;;;;4.32;2.13;;;23.60;49.50;;;;;;6165697;28;81751;-58
2024/03/13 04:55:54;;;;;;;2.63;1.83;;;23.60;49.50;;;;;;6173967;28;80698;-49
2024/03/13 04:58:54;;;;;;;3.40;1.95;;;23.60;49.50;;;;;;6175337;28;81434;-53
2024/03/13 05:01:55;;;;;;;2.30;1.80;;;23.70;49.50;;;;;;6172684;28;80546;-48
2024/03/13 05:04:57;;;;;;;4.85;2.05;;;23.70;49.60;;;;;;6172622;28;86283;-56
2024/03/13 05:07:58;;;;;;;2.47;1.90;;;23.70;49.60;;;;;;6175288;28;80709;-52
2024/03/13 05:10:59;;;;;;;4.93;2.20;;;23.70;49.90;;;;;;6166082;28;81974;-58
2024/03/13 05:13:59;;;;;;;4.25;1.90;;;23.70;50.30;;;;;;6164483;28;80783;-55
2024/03/13 05:17:00;;;;;;;2.72;2.17;;;23.70;50.20;;;;;;6175784;28;81297;-53
2024/03/13 05:20:00;;;;;;;3.28;2.13;;;23.80;50.30;;;;;;6174487;28;81431;-53
2024/03/13 05:23:06;;;;;;;3.75;2.15;;;23.80;50.50;;;;;;6175789;28;80816;-56
2024/03/13 05:26:06;;;;;;;3.08;2.17;;;23.80;50.60;;;;;;6165988;28;80905;-53
2024/03/13 05:29:09;;;;;;;4.65;2.47;;;23.80;50.40;;;;;;6175997;28;81570;-52
2024/03/13 05:32:09;;;;;;;3.58;2.13;;;23.80;50.90;;;;;;6178040;28;80749;-52
2024/03/13 05:35:12;;;;;;;3.38;2.30;;;23.80;50.90;;;;;;6179667;28;81941;-48
2024/03/13 05:38:13;;;;;;;4.10;2.90;;;23.80;51.40;;;;;;6174447;28;81872;-53
2024/03/13 05:41:14;;;;;;;3.20;1.90;;;23.90;51.50;;;;;;6176100;28;80226;-54
2024/03/13 05:44:15;;;;;;;3.35;2.40;;;23.90;52.00;;;;;;6177199;28;80956;-47
2024/03/13 05:47:16;;;;;;;6.70;2.20;;;23.90;51.90;;;;;;6175997;28;80353;-54
2024/03/13 05:50:17;;;;;;;4.47;2.25;;;23.90;51.80;;;;;;6173787;28;83010;-57
2024/03/13 05:53:18;;;;;;;8.18;2.28;;;23.90;51.70;;;;;;6179672;28;81198;-53
2024/03/13 05:56:21;;;;;;;2.88;2.30;;;23.90;51.90;;;;;;6177467;28;81682;-52
2024/03/13 05:59:21;;;;;;;9.32;2.60;;;24.00;51.80;;;;;;6169055;28;87097;-53
2024/03/13 06:02:22;;;;;;;6.15;2.53;;;23.90;51.90;;;;;;6142163;28;81281;-51
2024/03/13 06:05:22;;;;;;;12.60;3.00;;;24.00;52.20;;;;;;6161596;28;82225;-54
2024/03/13 06:08:23;;;;;;;5.45;3.03;;;24.00;52.30;;;;;;6155612;28;80942;-49
2024/03/13 06:11:23;;;;;;;5.22;2.67;;;24.00;52.10;;;;;;6173876;28;80230;-51
2024/03/13 06:14:24;;;;;;;6.15;2.47;;;24.00;52.00;;;;;;6156065;28;82495;-50
2024/03/13 06:17:25;;;;;;;4.00;2.83;;;24.00;52.00;;;;;;6177701;28;80944;-51
2024/03/13 06:20:25;;;;;;;3.88;2.47;;;23.90;51.70;;;;;;6178484;28;80194;-49
2024/03/13 06:23:27;;;;;;;7.15;2.80;;;23.90;51.80;;;;;;6179171;28;80434;-50
2024/03/13 06:26:28;;;;;;;5.15;2.40;;;23.90;51.60;;;;;;6177336;28;81354;-54
2024/03/13 06:32:48;;;;;;;3.45;2.40;;;23.80;51.50;;;;;;6175268;28;80848;-51
2024/03/13 06:35:48;;;;;;;2.47;2.15;;;23.80;51.40;;;;;;6173556;28;80541;-56
2024/03/13 06:38:49;;;;;;;13.60;2.70;;;23.80;51.50;;;;;;6170525;28;80438;-54
2024/03/13 06:41:50;;;;;;;4.97;2.47;;;23.80;51.80;;;;;;6172312;28;80256;-50
2024/03/13 06:44:51;;;;;;;7.45;2.63;;;23.80;51.80;;;;;;6176156;28;80962;-63
2024/03/13 06:47:51;;;;;;;3.90;2.47;;;23.80;51.80;;;;;;6157666;28;82907;-64
2024/03/13 06:50:52;;;;;;;3.67;2.47;;;23.80;51.70;;;;;;6173609;28;84587;-63
2024/03/13 06:53:52;;;;;;;6.78;2.67;;;23.80;51.60;;;;;;6175901;28;83554;-63
2024/03/13 06:56:53;;;;;;;3.40;2.10;;;23.80;51.50;;;;;;6178337;28;80462;-64
2024/03/13 06:59:53;;;;;;;4.13;2.30;;;23.70;51.50;;;;;;6171861;28;79989;-64
2024/03/13 07:02:57;;;;;;;2.83;2.13;;;23.70;51.30;;;;;;6170653;28;80575;-52
2024/03/13 07:05:57;;;;;;;5.43;2.25;;;23.70;51.50;;;;;;6174079;28;81741;-55
2024/03/13 07:08:58;;;;;;;4.03;2.03;;;23.70;51.40;;;;;;6174128;28;80573;-57
2024/03/13 07:11:58;;;;;;;2.88;2.30;;;23.70;51.30;;;;;;6174537;28;80887;-49
2024/03/13 07:14:59;;;;;;;2.92;1.83;;;23.70;51.20;;;;;;6173093;28;83573;-50
2024/03/13 07:17:59;;;;;;;3.33;2.13;;;23.70;51.40;;;;;;6177625;28;80665;-48
2024/03/13 07:21:02;;;;;;;2.45;2.22;;;23.60;51.20;;;;;;6177570;28;80633;-52
2024/03/13 07:24:03;;;;;;;8.80;2.30;;;23.60;51.10;;;;;;6178108;28;81389;-52
2024/03/13 07:27:04;;;;;;;2.42;1.98;;;23.60;51.10;;;;;;6177943;28;81255;-54
2024/03/13 07:30:04;;;;;;;3.17;2.00;;;23.60;51.10;;;;;;6178192;28;81753;-50
2024/03/13 07:33:08;;;;;;;5.80;2.05;;;23.60;51.20;;;;;;6176154;28;80944;-50
2024/03/13 07:36:08;;;;;;;6.22;2.65;;;23.60;51.10;;;;;;6177366;28;80217;-48
2024/03/13 07:39:14;;;;;;;3.35;1.90;;;23.60;51.00;;;;;;6176402;28;81425;-51
2024/03/13 07:42:15;;;;;;;2.65;2.03;;;23.60;51.00;;;;;;6176030;28;80671;-48
2024/03/13 07:45:16;;;;;;;5.68;2.45;;;23.60;51.70;;;;;;6176877;28;80446;-50
2024/03/13 07:48:16;;;;;;;3.42;2.00;;;23.60;51.00;;;;;;6177402;28;80902;-49
2024/03/13 07:51:17;;;;;;;5.78;2.33;;;23.60;51.00;;;;;;6178052;28;81154;-51
2024/03/13 07:54:18;;;;;;;4.25;2.00;;;23.60;50.90;;;;;;6177532;28;83109;-50
2024/03/13 07:57:19;;;;;;;2.58;2.10;;;23.60;51.00;;;;;;6175168;28;80733;-51
2024/03/13 08:00:22;;;;;;;3.72;2.10;;;23.50;50.80;;;;;;6174334;28;81275;-49
2024/03/13 08:03:22;;;;;;;2.85;2.00;;;23.60;51.00;;;;;;6187623;28;80463;-49
2024/03/13 08:06:23;;;;;;;4.88;2.00;;;23.60;50.90;;;;;;6176697;28;80845;-50
2024/03/13 08:09:28;;;;;;;4.07;1.73;;;23.50;50.90;;;;;;6177055;28;81656;-48
2024/03/13 08:12:28;;;;;;;2.17;1.75;;;23.60;50.90;;;;;;6175183;28;80052;-50
2024/03/13 08:15:29;;;;;;;3.78;2.13;;;23.50;50.80;;;;;;6176262;28;80789;-52
2024/03/13 08:18:30;;;;;;;2.42;1.88;;;23.60;50.90;;;;;;6176137;28;80416;-53
2024/03/13 08:21:30;;;;;;;2.90;1.98;;;23.50;50.70;;;;;;6176375;28;81034;-53
2024/03/13 08:24:31;;;;;;;2.97;2.08;;;23.60;50.70;;;;;;6186212;28;81054;-51
2024/03/13 08:27:32;;;;;;;4.75;1.90;;;23.50;50.60;;;;;;6177497;28;80545;-57
2024/03/13 08:30:33;;;;;;;2.72;1.90;;;23.50;50.60;;;;;;6176868;28;80967;-53
2024/03/13 08:33:33;;;;;;;4.68;1.67;;;23.50;50.70;;;;;;6175864;28;80299;-61
2024/03/13 08:36:34;;;;;;;2.42;1.80;;;23.60;50.80;;;;;;6176700;28;80154;-59
2024/03/13 08:39:34;;;;;;;3.28;1.75;;;23.60;50.60;;;;;;6175683;28;80263;-60
2024/03/13 08:42:35;;;;;;;4.65;2.10;;;23.60;50.60;;;;;;6176078;28;82387;-59
2024/03/13 08:45:36;;;;;;;2.38;1.98;;;23.60;50.70;;;;;;6174180;28;80458;-60
2024/03/13 08:48:36;;;;;;;2.63;2.20;;;23.50;50.70;;;;;;6175220;28;80858;-60
2024/03/13 08:51:37;;;;;;;2.28;1.63;;;23.50;50.60;;;;;;6174539;28;81635;-59
2024/03/13 08:54:37;;;;;;;3.38;1.90;;;23.50;50.70;;;;;;6174949;28;80476;-60
2024/03/13 08:57:38;;;;;;;2.30;1.75;;;23.50;50.70;;;;;;6175103;28;80903;-59
2024/03/13 09:00:39;;;;;;;4.10;2.05;;;23.50;50.80;;;;;;6175512;28;82072;-60
2024/03/13 09:03:40;;;;;;;2.78;1.83;;;23.50;50.70;;;;;;6184024;28;80560;-59
2024/03/13 09:06:41;;;;;;;2.55;1.67;;;23.50;50.70;;;;;;6178936;28;80282;-60
2024/03/13 09:09:41;;;;;;;3.58;1.60;;;23.50;50.70;;;;;;6181412;28;80324;-65
2024/03/13 09:12:42;;;;;;;1.50;1.38;;;23.50;50.70;;;;;;6181723;28;81046;-65
2024/03/13 09:15:44;;;;;;;2.40;1.92;;;23.50;50.60;;;;;;6172746;28;81088;-64
2024/03/13 09:18:44;;;;;;;2.35;1.67;;;23.50;50.60;;;;;;6175695;28;80288;-66
2024/03/13 09:21:48;;;;;;;1.70;1.58;;;23.50;50.50;;;;;;6178957;28;82474;-64
2024/03/13 09:24:48;;;;;;;5.07;1.95;;;23.50;51.20;;;;;;6178962;28;81212;-62
2024/03/13 09:27:49;;;;;;;1.65;1.30;;;23.50;50.60;;;;;;6180639;28;81341;-52
2024/03/13 09:30:49;;;;;;;3.50;1.73;;;23.50;50.60;;;;;;6178569;28;83090;-54
2024/03/13 09:33:50;;;;;;;1.40;1.20;;;23.50;50.60;;;;;;6179168;28;80512;-53
2024/03/13 09:36:50;;;;;;;2.83;2.10;;;23.50;50.60;;;;;;6179767;28;80576;-51
2024/03/13 09:39:52;;;;;;;2.83;1.70;;;23.50;50.50;;;;;;6179460;28;80816;-52
2024/03/13 09:42:52;;;;;;;2.67;1.50;;;23.50;50.50;;;;;;6179023;28;80375;-54
2024/03/13 09:45:53;;;;;;;2.15;1.55;;;23.50;50.40;;;;;;6179611;28;80492;-52
2024/03/13 09:48:54;;;;;;;2.30;1.60;;;23.50;50.50;;;;;;6179449;28;80133;-52
2024/03/13 09:51:55;;;;;;;2.72;1.95;;;23.50;50.40;;;;;;6177973;28;81183;-48
2024/03/13 09:54:58;;;;;;;2.20;1.30;;;23.50;50.40;;;;;;6178597;28;80533;-54
2024/03/13 09:57:59;;;;;;;2.40;1.40;;;23.50;50.40;;;;;;6179378;28;80252;-53
2024/03/13 10:01:00;;;;;;;2.03;1.40;;;23.40;50.30;;;;;;6180177;28;80788;-53
2024/03/13 10:04:03;;;;;;;1.55;1.30;;;23.40;50.40;;;;;;6178640;28;80540;-51
2024/03/13 10:07:04;;;;;;;2.22;1.40;;;23.40;50.30;;;;;;6177618;28;80622;-59
2024/03/13 10:10:04;;;;;;;2.25;1.40;;;23.40;50.20;;;;;;6179261;28;80877;-60
2024/03/13 10:13:05;;;;;;;1.63;1.17;;;23.40;50.30;;;;;;6180040;28;80453;-60
2024/03/13 10:16:06;;;;;;;1.35;1.17;;;23.40;50.30;;;;;;6177536;28;80481;-60
2024/03/13 10:19:06;;;;;;;3.72;1.63;;;23.40;50.20;;;;;;6178407;28;80835;-59
2024/03/13 10:22:07;;;;;;;2.25;1.60;;;23.40;50.20;;;;;;6179019;28;82842;-60
2024/03/13 10:25:09;;;;;;;3.33;1.83;;;23.40;50.10;;;;;;6179129;28;80513;-65
2024/03/13 10:28:13;;;;;;;2.03;1.63;;;23.40;50.00;;;;;;6190463;28;81504;-64
2024/03/13 10:31:13;;;;;;;3.17;1.30;;;23.50;50.60;;;;;;6180539;28;80699;-65
2024/03/13 10:34:15;;;;;;;1.80;1.55;;;23.50;50.80;;;;;;6189764;28;80771;-64
2024/03/13 10:37:15;;;;;;;3.85;1.63;;;23.50;50.40;;;;;;6191152;28;83874;-64
2024/03/13 10:40:16;;;;;;;2.13;1.38;;;23.50;50.20;;;;;;6178296;28;80795;-64
2024/03/13 10:43:17;;;;;;;2.60;1.60;;;23.60;50.10;;;;;;6176767;28;80371;-60
2024/03/13 10:46:18;;;;;;;4.30;1.65;;;23.60;50.00;;;;;;6175731;28;81077;-60
2024/03/13 10:49:18;;;;;;;2.90;1.48;;;23.60;50.00;;;;;;6177487;28;80313;-61
2024/03/13 10:52:19;;;;;;;3.17;1.45;;;23.60;50.00;;;;;;6177382;28;80826;-61
2024/03/13 10:55:19;;;;;;;3.72;1.85;;;23.60;49.90;;;;;;6177891;28;80211;-61
2024/03/13 10:58:20;;;;;;;2.30;1.60;;;23.60;49.90;;;;;;6177495;28;80848;-61
2024/03/13 11:01:21;;;;;;;1.80;1.63;;;23.60;50.00;;;;;;6177230;28;80229;-64
2024/03/13 11:04:21;;;;;;;3.47;1.65;;;23.60;49.90;;;;;;6185286;28;80971;-65
2024/03/13 11:07:22;;;;;;;4.32;2.00;;;23.60;50.00;;;;;;6179087;28;80861;-64
2024/03/13 11:10:23;;;;;;;3.00;1.70;;;23.70;50.00;;;;;;6177842;28;80909;-64
2024/03/13 11:13:24;;;;;;;2.65;1.80;;;23.70;50.00;;;;;;6179315;28;80334;-64
2024/03/13 11:16:25;;;;;;;3.22;2.00;;;23.70;50.00;;;;;;6181585;28;80460;-64
2024/03/13 11:19:25;;;;;;;2.42;1.65;;;23.70;50.00;;;;;;6179752;28;85621;-53
2024/03/13 11:22:26;;;;;;;2.28;1.70;;;23.70;50.10;;;;;;6175979;28;80546;-48
2024/03/13 11:25:26;;;;;;;2.63;2.03;;;23.60;50.00;;;;;;6176883;28;81269;-49
2024/03/13 11:28:27;;;;;;;2.13;1.92;;;23.70;50.10;;;;;;6175981;28;81249;-54
2024/03/13 11:31:28;;;;;;;2.92;2.35;;;23.70;50.10;;;;;;6176192;28;81154;-55
2024/03/13 11:34:28;;;;;;;2.78;2.35;;;23.70;50.10;;;;;;6177760;28;80330;-52
2024/03/13 11:37:29;;;;;;;2.90;2.10;;;23.70;50.10;;;;;;6175834;28;80586;-52
2024/03/13 11:40:34;;;;;;;4.03;2.17;;;23.70;50.10;;;;;;6190697;28;80449;-48
2024/03/13 11:43:35;;;;;;;3.58;2.53;;;23.70;50.00;;;;;;6176927;28;81270;-52
2024/03/13 11:46:35;;;;;;;3.85;2.50;;;23.70;50.10;;;;;;6177109;28;80986;-51
2024/03/13 11:49:37;;;;;;;4.32;2.97;;;23.70;50.10;;;;;;6178327;28;81124;-51
2024/03/13 11:52:38;;;;;;;3.63;2.65;;;23.70;50.10;;;;;;6174489;28;80823;-51
2024/03/13 11:55:38;;;;;;;2.92;2.60;;;23.70;50.20;;;;;;6177437;28;80311;-65
2024/03/13 11:58:39;;;;;;;3.53;2.53;;;23.70;50.10;;;;;;6184900;28;80386;-64
2024/03/13 12:01:39;;;;;;;3.22;2.58;;;23.70;50.10;;;;;;6177161;28;81180;-64
2024/03/13 12:04:40;;;;;;;4.18;2.95;;;23.70;50.10;;;;;;6182236;28;80318;-64
2024/03/13 12:07:40;;;;;;;2.85;2.50;;;23.70;50.10;;;;;;6174225;28;80345;-66
2024/03/13 12:10:41;;;;;;;4.00;3.13;;;23.80;50.10;;;;;;6178248;28;85055;-61
2024/03/13 12:13:41;;;;;;;3.80;3.03;;;23.70;50.00;;;;;;6176645;28;80056;-60
2024/03/13 12:16:42;;;;;;;4.60;3.33;;;23.70;50.00;;;;;;6173671;28;81726;-60
2024/03/13 12:19:43;;;;;;;4.45;3.33;;;23.70;50.10;;;;;;6177513;28;80764;-60
2024/03/13 12:22:44;;;;;;;4.50;3.50;;;23.80;50.10;;;;;;6176638;28;80957;-59
2024/03/13 12:25:45;;;;;;;5.55;3.67;;;23.80;50.00;;;;;;6176965;28;80230;-61
2024/03/13 12:28:45;;;;;;;6.18;4.20;;;23.70;50.00;;;;;;6176685;28;81980;-61
2024/03/13 12:31:46;;;;;;;5.45;4.13;;;23.70;50.00;;;;;;6172966;28;80435;-60
2024/03/13 12:34:48;;;;;;;5.70;4.35;;;23.80;50.00;;;;;;6173086;28;80828;-60
2024/03/13 12:37:49;;;;;;;6.40;3.83;;;23.70;50.00;;;;;;6174173;28;80986;-61
2024/03/13 12:40:50;;;;;;;4.57;3.70;;;23.80;50.10;;;;;;6178659;28;80530;-62
2024/03/13 12:43:51;;;;;;;5.45;4.18;;;23.80;50.10;;;;;;6181042;28;82225;-62
2024/03/13 12:46:51;;;;;;;5.50;4.25;;;23.80;50.20;;;;;;6177190;28;81379;-61
2024/03/13 12:49:52;;;;;;;4.95;3.90;;;23.80;50.20;;;;;;6169654;28;81110;-59
2024/03/13 12:52:52;;;;;;;6.60;5.03;;;23.80;50.20;;;;;;6180531;28;80502;-59
2024/03/13 12:55:53;;;;;;;8.13;5.38;;;23.80;50.10;;;;;;6167888;28;80680;-59
2024/03/13 12:58:53;;;;;;;9.63;5.55;;;23.80;50.20;;;;;;6180220;28;80415;-58
2024/03/13 13:01:54;;;;;;;8.13;5.60;;;23.70;50.30;;;;;;6175379;28;80501;-59
2024/03/13 13:04:54;;;;;;;11.10;6.60;;;23.70;50.10;;;;;;6179062;28;83557;-59
2024/03/13 13:07:55;;;;;;;14.73;7.10;;;23.70;49.40;;;;;;6178840;28;80742;-59
2024/03/13 13:10:56;;;;;;;13.50;8.93;;;23.60;48.90;;;;;;6177759;28;80841;-52
2024/03/13 13:13:58;;;;;;;11.35;8.38;;;23.60;48.70;;;;;;6179449;28;80682;-53
2024/03/13 13:16:58;;;;;;;13.82;9.30;;;23.60;48.40;;;;;;6180502;28;80990;-52
2024/03/13 13:19:59;;;;;;;15.98;9.40;;;23.50;48.00;;;;;;6179899;28;81283;-51
2024/03/13 13:23:00;;;;;;;15.30;9.85;;;23.50;47.90;;;;;;6171723;28;83799;-54
2024/03/13 13:26:01;;;;;;;14.93;9.50;;;23.40;48.00;;;;;;6177280;28;80265;-55
2024/03/13 13:29:02;;;;;;;18.92;9.20;;;23.40;47.90;;;;;;6169485;28;81000;-51
2024/03/13 13:32:02;;;;;;;15.90;9.88;;;23.30;47.90;;;;;;6176446;28;80845;-52
2024/03/13 13:35:06;;;;;;;13.35;9.80;;;23.30;47.80;;;;;;6176374;28;81435;-52
2024/03/13 13:38:06;;;;;;;13.50;9.68;;;23.30;47.50;;;;;;6176865;28;80669;-53
2024/03/13 13:41:07;;;;;;;16.83;9.73;;;23.20;47.60;;;;;;6167844;28;81230;-56
2024/03/13 13:44:07;;;;;;;18.73;11.63;;;23.20;47.50;;;;;;6168021;28;80810;-57
2024/03/13 13:47:08;;;;;;;21.27;9.93;;;23.10;47.60;;;;;;6175405;28;83028;-59
2024/03/13 13:50:14;;;;;;;19.60;11.50;;;23.10;47.60;;;;;;6177729;28;81788;-57
2024/03/13 13:53:15;;;;;;;20.60;10.50;;;23.10;47.80;;;;;;6174611;28;82947;-56
2024/03/13 13:56:16;;;;;;;16.85;10.52;;;23.10;48.20;;;;;;6176440;28;84121;-58
2024/03/13 13:59:17;;;;;;;20.40;10.65;;;23.10;47.70;;;;;;6169825;28;89017;-55
2024/03/13 14:02:18;;;;;;;18.13;11.18;;;23.10;48.10;;;;;;6173047;28;84363;-56
2024/03/13 14:05:20;;;;;;;20.02;10.70;;;23.10;48.00;;;;;;6172901;28;83089;-56
2024/03/13 14:08:20;;;;;;;16.92;10.68;;;23.10;48.30;;;;;;6174351;28;83983;-54
2024/03/13 14:11:21;;;;;;;14.10;9.90;;;23.20;48.90;;;;;;6179123;28;83341;-53
2024/03/13 14:14:21;;;;;;;18.55;10.90;;;23.10;49.30;;;;;;6178232;28;83221;-56
2024/03/13 14:17:27;;;;;;;20.20;10.98;;;23.20;50.20;;;;;;6171667;28;89069;-53
2024/03/13 14:20:27;;;;;;;21.10;11.13;;;23.10;50.50;;;;;;6171889;28;82837;-51
2024/03/13 14:23:28;;;;;;;18.75;10.35;;;23.20;50.90;;;;;;6168808;28;83712;-66
2024/03/13 14:26:29;;;;;;;14.48;10.38;;;23.10;51.40;;;;;;6174476;28;83116;-68
2024/03/13 14:29:30;;;;;;;17.05;10.25;;;23.10;51.20;;;;;;6173796;28;84971;-69
2024/03/13 14:32:30;;;;;;;14.82;9.93;;;23.10;51.30;;;;;;6177400;28;83584;-67
2024/03/13 14:35:31;;;;;;;16.40;10.55;;;23.20;51.30;;;;;;6177810;28;82788;-65
2024/03/13 14:38:32;;;;;;;19.98;12.25;;;23.10;50.90;;;;;;6164566;28;84039;-65
2024/03/13 14:41:32;;;;;;;13.25;9.35;;;23.10;49.00;;;;;;6172481;28;83154;-68
2024/03/13 14:44:33;;;;;;;16.45;10.52;;;23.00;50.10;;;;;;6183825;28;81815;-66
2024/03/13 14:47:34;;;;;;;23.00;9.90;;;23.00;50.10;;;;;;6183320;28;82595;-68
2024/03/13 14:50:34;;;;;;;17.25;10.18;;;23.10;49.60;;;;;;6183832;28;82321;-67
2024/03/13 14:53:35;;;;;;;16.92;9.88;;;23.00;49.40;;;;;;6174536;28;83523;-68
2024/03/13 14:56:35;;;;;;;16.58;10.13;;;23.00;49.40;;;;;;6197632;28;81730;-70
2024/03/13 14:59:36;;;;;;;15.45;9.50;;;23.00;49.20;;;;;;6194468;28;90589;-58
2024/03/13 15:02:37;;;;;;;12.73;8.73;;;23.00;49.20;;;;;;6176443;28;83251;-55
2024/03/13 15:05:38;;;;;;;14.27;8.98;;;23.00;49.50;;;;;;6173984;28;81389;-55
2024/03/13 15:08:38;;;;;;;15.65;9.25;;;23.10;49.90;;;;;;6173964;28;83533;-56
2024/03/13 15:11:39;;;;;;;15.27;9.45;;;23.10;50.20;;;;;;6175232;28;80605;-57
2024/03/13 15:14:40;;;;;;;13.52;8.00;;;23.20;50.50;;;;;;6174991;28;80521;-55
2024/03/13 15:17:42;;;;;;;11.80;7.82;;;23.20;50.50;;;;;;6177694;28;80551;-56
2024/03/13 15:20:45;;;;;;;11.45;7.93;;;23.20;50.60;;;;;;6175827;28;80455;-57
2024/03/13 15:23:46;;;;;;;12.55;8.20;;;23.20;50.50;;;;;;6176160;28;80753;-60
2024/03/13 15:26:46;;;;;;;14.02;8.15;;;23.30;50.50;;;;;;6175143;28;84270;-57
2024/03/13 15:29:47;;;;;;;12.50;7.75;;;23.30;50.60;;;;;;6174512;28;81500;-56
2024/03/13 15:32:47;;;;;;;10.77;7.75;;;23.30;50.50;;;;;;6177490;28;80868;-59
2024/03/13 15:35:48;;;;;;;12.38;8.10;;;23.30;50.50;;;;;;6176972;28;80387;-57
2024/03/13 15:38:49;;;;;;;14.63;7.82;;;23.30;50.60;;;;;;6175925;28;81520;-54
2024/03/13 15:41:49;;;;;;;13.02;8.30;;;23.30;50.70;;;;;;6177296;28;80335;-55
2024/03/13 15:44:50;;;;;;;15.93;8.45;;;23.30;50.60;;;;;;6189174;28;80592;-55
2024/03/13 15:47:50;;;;;;;11.30;7.00;;;23.40;50.70;;;;;;6176839;28;80760;-55
2024/03/13 15:50:51;;;;;;;16.23;7.40;;;23.40;51.10;;;;;;6177802;28;82345;-56
2024/03/13 15:53:52;;;;;;;11.98;7.97;;;23.50;51.20;;;;;;6176226;28;82554;-67
2024/03/13 15:56:53;;;;;;;9.75;7.50;;;23.50;51.30;;;;;;6177998;28;80709;-67
2024/03/13 15:59:54;;;;;;;11.75;7.55;;;23.50;51.20;;;;;;6177721;28;83374;-68
2024/03/13 16:02:55;;;;;;;11.65;7.00;;;23.50;51.20;;;;;;6177649;28;80360;-66
2024/03/13 16:05:55;;;;;;;14.02;7.43;;;23.50;51.40;;;;;;6176482;28;80633;-65